Andrews, South Carolina
Current Conditions -  °F | °C
As of 8:15 PM on Friday 31 Oct 2014 (Local Time) from KGGE Reporting Station
Clear Clear  
Wind Chill: 50°   Ceiling: Unl
Heat Index: 50°   Visibility: 10mi
Dew Point: 48°   Wind: 0mph
Humidity: 94%   Direction: NA
Pressure: 29.8"   Gusts: NA
Location:  33.45°N, 79.56°W
Report Text: KGGE 010015Z AUTO 00000KT 10SM CLR 10/09 A2980 RMK AO2
Loading
Personal Weather Stations






























Interactive Weather Map
Tropical Storm Tracking
New forecast layout! Learn more

10-Day Weather Forecast

Advertisements
Track Severe Weather on mobile